sensor_id;sensor_type;location;lat;lon;timestamp;temperature;humidity
40622;DHT22;26324;52.040;11.528;2023-02-01T00:00:37;5.30;75.70
40622;DHT22;26324;52.040;11.528;2023-02-01T00:03:04;5.30;75.70
40622;DHT22;26324;52.040;11.528;2023-02-01T00:05:32;5.30;75.70
40622;DHT22;26324;52.040;11.528;2023-02-01T00:08:00;5.30;75.90
40622;DHT22;26324;52.040;11.528;2023-02-01T00:10:27;5.20;76.00
40622;DHT22;26324;52.040;11.528;2023-02-01T00:12:54;5.20;76.00
40622;DHT22;26324;52.040;11.528;2023-02-01T00:15:21;5.10;76.30
40622;DHT22;26324;52.040;11.528;2023-02-01T00:17:54;5.20;76.20
40622;DHT22;26324;52.040;11.528;2023-02-01T00:20:22;5.20;76.10
40622;DHT22;26324;52.040;11.528;2023-02-01T00:22:49;5.30;75.80
40622;DHT22;26324;52.040;11.528;2023-02-01T00:25:16;5.30;75.60
40622;DHT22;26324;52.040;11.528;2023-02-01T00:27:48;5.30;75.80
40622;DHT22;26324;52.040;11.528;2023-02-01T00:30:17;5.30;75.80
40622;DHT22;26324;52.040;11.528;2023-02-01T00:32:44;5.30;75.70
40622;DHT22;26324;52.040;11.528;2023-02-01T00:35:12;5.30;75.70
40622;DHT22;26324;52.040;11.528;2023-02-01T00:37:39;5.30;75.70
40622;DHT22;26324;52.040;11.528;2023-02-01T00:40:07;5.40;75.70
40622;DHT22;26324;52.040;11.528;2023-02-01T00:42:34;5.30;75.90
40622;DHT22;26324;52.040;11.528;2023-02-01T00:45:01;5.20;76.20
40622;DHT22;26324;52.040;11.528;2023-02-01T00:47:29;5.20;76.10
40622;DHT22;26324;52.040;11.528;2023-02-01T00:49:57;5.20;76.00
40622;DHT22;26324;52.040;11.528;2023-02-01T00:52:24;5.20;76.20
40622;DHT22;26324;52.040;11.528;2023-02-01T00:54:51;5.30;75.90
40622;DHT22;26324;52.040;11.528;2023-02-01T00:57:19;5.30;76.00
40622;DHT22;26324;52.040;11.528;2023-02-01T00:59:46;5.30;75.90
40622;DHT22;26324;52.040;11.528;2023-02-01T01:02:13;5.30;75.90
40622;DHT22;26324;52.040;11.528;2023-02-01T01:04:41;5.20;75.90
40622;DHT22;26324;52.040;11.528;2023-02-01T01:07:08;5.20;76.20
40622;DHT22;26324;52.040;11.528;2023-02-01T01:09:36;5.10;76.50
40622;DHT22;26324;52.040;11.528;2023-02-01T01:12:03;5.10;76.70
40622;DHT22;26324;52.040;11.528;2023-02-01T01:14:32;5.10;77.00
40622;DHT22;26324;52.040;11.528;2023-02-01T01:16:59;5.00;77.20
40622;DHT22;26324;52.040;11.528;2023-02-01T01:19:26;5.00;77.50
40622;DHT22;26324;52.040;11.528;2023-02-01T01:21:53;5.00;77.80
40622;DHT22;26324;52.040;11.528;2023-02-01T01:24:21;4.90;78.00
40622;DHT22;26324;52.040;11.528;2023-02-01T01:26:48;4.90;78.10
40622;DHT22;26324;52.040;11.528;2023-02-01T01:29:15;4.90;78.20
40622;DHT22;26324;52.040;11.528;2023-02-01T01:31:42;5.00;78.10
40622;DHT22;26324;52.040;11.528;2023-02-01T01:34:10;4.90;78.30
40622;DHT22;26324;52.040;11.528;2023-02-01T01:36:37;4.90;78.40
40622;DHT22;26324;52.040;11.528;2023-02-01T01:39:08;4.90;78.60
40622;DHT22;26324;52.040;11.528;2023-02-01T01:41:35;4.80;78.80
40622;DHT22;26324;52.040;11.528;2023-02-01T01:47:19;4.90;78.90
40622;DHT22;26324;52.040;11.528;2023-02-01T01:49:46;4.80;79.00
40622;DHT22;26324;52.040;11.528;2023-02-01T01:52:14;4.80;78.90
40622;DHT22;26324;52.040;11.528;2023-02-01T01:54:45;4.80;78.80
40622;DHT22;26324;52.040;11.528;2023-02-01T01:57:18;4.90;78.70
40622;DHT22;26324;52.040;11.528;2023-02-01T01:59:53;4.90;78.70
40622;DHT22;26324;52.040;11.528;2023-02-01T02:02:21;5.00;78.50
40622;DHT22;26324;52.040;11.528;2023-02-01T02:04:49;5.00;78.50
40622;DHT22;26324;52.040;11.528;2023-02-01T02:07:21;5.00;78.60
40622;DHT22;26324;52.040;11.528;2023-02-01T02:09:50;4.90;78.60
40622;DHT22;26324;52.040;11.528;2023-02-01T02:12:27;4.90;78.60
40622;DHT22;26324;52.040;11.528;2023-02-01T02:14:55;4.90;78.70
40622;DHT22;26324;52.040;11.528;2023-02-01T02:18:01;4.90;78.50
40622;DHT22;26324;52.040;11.528;2023-02-01T02:23:29;5.00;78.30
40622;DHT22;26324;52.040;11.528;2023-02-01T02:26:22;5.00;78.50
40622;DHT22;26324;52.040;11.528;2023-02-01T02:46:04;5.10;78.00
40622;DHT22;26324;52.040;11.528;2023-02-01T02:48:58;5.10;78.10
40622;DHT22;26324;52.040;11.528;2023-02-01T02:51:32;5.00;78.20
40622;DHT22;26324;52.040;11.528;2023-02-01T02:54:32;5.10;78.10
40622;DHT22;26324;52.040;11.528;2023-02-01T02:57:32;5.00;78.20
40622;DHT22;26324;52.040;11.528;2023-02-01T03:00:22;5.00;78.30
40622;DHT22;26324;52.040;11.528;2023-02-01T03:03:10;5.00;78.30
40622;DHT22;26324;52.040;11.528;2023-02-01T03:05:56;5.00;78.40
40622;DHT22;26324;52.040;11.528;2023-02-01T03:08:25;5.00;78.20
40622;DHT22;26324;52.040;11.528;2023-02-01T03:11:00;5.00;78.20
40622;DHT22;26324;52.040;11.528;2023-02-01T03:16:24;5.00;78.10
40622;DHT22;26324;52.040;11.528;2023-02-01T03:19:01;5.00;78.20
40622;DHT22;26324;52.040;11.528;2023-02-01T03:21:40;5.00;78.10
40622;DHT22;26324;52.040;11.528;2023-02-01T03:24:30;5.00;78.20
40622;DHT22;26324;52.040;11.528;2023-02-01T03:27:05;5.00;78.00
40622;DHT22;26324;52.040;11.528;2023-02-01T03:32:17;5.00;77.80
40622;DHT22;26324;52.040;11.528;2023-02-01T03:34:46;5.00;78.00
40622;DHT22;26324;52.040;11.528;2023-02-01T03:37:22;5.00;78.30
40622;DHT22;26324;52.040;11.528;2023-02-01T03:40:04;5.00;78.10
40622;DHT22;26324;52.040;11.528;2023-02-01T03:42:38;5.00;77.90
40622;DHT22;26324;52.040;11.528;2023-02-01T03:45:13;5.10;77.80
40622;DHT22;26324;52.040;11.528;2023-02-01T03:47:48;5.10;77.90
40622;DHT22;26324;52.040;11.528;2023-02-01T03:50:19;5.00;78.20
40622;DHT22;26324;52.040;11.528;2023-02-01T03:52:56;5.00;78.20
40622;DHT22;26324;52.040;11.528;2023-02-01T03:55:26;5.00;78.00
40622;DHT22;26324;52.040;11.528;2023-02-01T03:57:57;5.00;77.90
40622;DHT22;26324;52.040;11.528;2023-02-01T04:00:27;5.00;78.00
40622;DHT22;26324;52.040;11.528;2023-02-01T04:02:56;5.00;78.10
40622;DHT22;26324;52.040;11.528;2023-02-01T04:05:24;5.00;78.20
40622;DHT22;26324;52.040;11.528;2023-02-01T04:07:58;4.90;78.20
40622;DHT22;26324;52.040;11.528;2023-02-01T04:10:29;4.80;78.40
40622;DHT22;26324;52.040;11.528;2023-02-01T04:12:58;4.90;78.40
40622;DHT22;26324;52.040;11.528;2023-02-01T04:15:29;4.90;78.40
40622;DHT22;26324;52.040;11.528;2023-02-01T04:17:56;4.90;78.40
40622;DHT22;26324;52.040;11.528;2023-02-01T04:20:23;4.80;78.80
40622;DHT22;26324;52.040;11.528;2023-02-01T04:22:51;5.00;78.90
40622;DHT22;26324;52.040;11.528;2023-02-01T04:25:19;4.90;79.10
40622;DHT22;26324;52.040;11.528;2023-02-01T04:27:47;4.90;79.10
40622;DHT22;26324;52.040;11.528;2023-02-01T04:30:15;5.00;79.40
40622;DHT22;26324;52.040;11.528;2023-02-01T04:32:42;5.00;79.40
40622;DHT22;26324;52.040;11.528;2023-02-01T04:35:09;4.90;80.00
40622;DHT22;26324;52.040;11.528;2023-02-01T04:37:38;4.90;80.10
40622;DHT22;26324;52.040;11.528;2023-02-01T04:40:06;4.90;80.10
40622;DHT22;26324;52.040;11.528;2023-02-01T04:42:34;4.90;79.90
40622;DHT22;26324;52.040;11.528;2023-02-01T04:45:01;5.00;80.10
40622;DHT22;26324;52.040;11.528;2023-02-01T04:47:29;4.90;80.10
40622;DHT22;26324;52.040;11.528;2023-02-01T04:49:56;5.00;80.10
40622;DHT22;26324;52.040;11.528;2023-02-01T04:52:26;5.00;80.20
40622;DHT22;26324;52.040;11.528;2023-02-01T04:54:54;5.00;80.50
40622;DHT22;26324;52.040;11.528;2023-02-01T04:57:25;4.90;80.60
40622;DHT22;26324;52.040;11.528;2023-02-01T04:59:53;4.90;80.90
40622;DHT22;26324;52.040;11.528;2023-02-01T05:02:24;4.90;81.10
40622;DHT22;26324;52.040;11.528;2023-02-01T05:04:54;4.80;81.70
40622;DHT22;26324;52.040;11.528;2023-02-01T05:07:29;4.80;81.90
40622;DHT22;26324;52.040;11.528;2023-02-01T05:09:56;4.80;81.90
40622;DHT22;26324;52.040;11.528;2023-02-01T05:12:30;4.80;82.10
40622;DHT22;26324;52.040;11.528;2023-02-01T05:15:16;4.80;82.00
40622;DHT22;26324;52.040;11.528;2023-02-01T05:17:58;4.90;82.10
40622;DHT22;26324;52.040;11.528;2023-02-01T05:20:25;4.90;82.30
40622;DHT22;26324;52.040;11.528;2023-02-01T05:22:53;4.80;83.30
40622;DHT22;26324;52.040;11.528;2023-02-01T05:25:20;4.70;84.00
40622;DHT22;26324;52.040;11.528;2023-02-01T05:27:47;4.60;84.30
40622;DHT22;26324;52.040;11.528;2023-02-01T05:30:15;4.60;84.50
40622;DHT22;26324;52.040;11.528;2023-02-01T05:32:42;4.60;84.30
40622;DHT22;26324;52.040;11.528;2023-02-01T05:35:09;4.60;84.10
40622;DHT22;26324;52.040;11.528;2023-02-01T05:37:37;4.60;84.10
40622;DHT22;26324;52.040;11.528;2023-02-01T05:40:04;4.60;84.00
40622;DHT22;26324;52.040;11.528;2023-02-01T05:42:32;4.60;84.20
40622;DHT22;26324;52.040;11.528;2023-02-01T05:44:59;4.60;84.30
40622;DHT22;26324;52.040;11.528;2023-02-01T05:47:31;4.50;84.20
40622;DHT22;26324;52.040;11.528;2023-02-01T05:49:58;4.50;84.20
40622;DHT22;26324;52.040;11.528;2023-02-01T05:52:25;4.60;84.10
40622;DHT22;26324;52.040;11.528;2023-02-01T05:54:52;4.60;83.80
40622;DHT22;26324;52.040;11.528;2023-02-01T05:57:20;4.60;83.70
40622;DHT22;26324;52.040;11.528;2023-02-01T05:59:47;4.60;83.70
40622;DHT22;26324;52.040;11.528;2023-02-01T06:02:32;4.60;83.50
40622;DHT22;26324;52.040;11.528;2023-02-01T06:05:02;4.70;83.50
40622;DHT22;26324;52.040;11.528;2023-02-01T06:07:29;4.70;83.40
40622;DHT22;26324;52.040;11.528;2023-02-01T06:09:57;4.60;83.20
40622;DHT22;26324;52.040;11.528;2023-02-01T06:12:24;4.60;83.00
40622;DHT22;26324;52.040;11.528;2023-02-01T06:14:51;4.60;82.90
40622;DHT22;26324;52.040;11.528;2023-02-01T06:17:18;4.60;83.00
40622;DHT22;26324;52.040;11.528;2023-02-01T06:19:46;4.60;83.20
40622;DHT22;26324;52.040;11.528;2023-02-01T06:22:15;4.60;83.50
40622;DHT22;26324;52.040;11.528;2023-02-01T06:24:45;4.60;83.90
40622;DHT22;26324;52.040;11.528;2023-02-01T06:27:13;4.60;84.20
40622;DHT22;26324;52.040;11.528;2023-02-01T06:29:40;4.50;85.10
40622;DHT22;26324;52.040;11.528;2023-02-01T06:32:08;4.50;85.50
40622;DHT22;26324;52.040;11.528;2023-02-01T06:34:35;4.50;85.60
40622;DHT22;26324;52.040;11.528;2023-02-01T06:37:08;4.50;85.80
40622;DHT22;26324;52.040;11.528;2023-02-01T06:39:38;4.50;85.90
40622;DHT22;26324;52.040;11.528;2023-02-01T06:42:10;4.40;86.20
40622;DHT22;26324;52.040;11.528;2023-02-01T06:44:38;4.40;86.30
40622;DHT22;26324;52.040;11.528;2023-02-01T06:47:07;4.40;86.40
40622;DHT22;26324;52.040;11.528;2023-02-01T06:49:35;4.40;86.60
40622;DHT22;26324;52.040;11.528;2023-02-01T06:52:03;4.40;86.80
40622;DHT22;26324;52.040;11.528;2023-02-01T06:54:30;4.50;86.70
40622;DHT22;26324;52.040;11.528;2023-02-01T06:57:00;4.50;86.50
40622;DHT22;26324;52.040;11.528;2023-02-01T06:59:33;4.50;86.60
40622;DHT22;26324;52.040;11.528;2023-02-01T07:02:00;4.40;86.50
40622;DHT22;26324;52.040;11.528;2023-02-01T07:04:31;4.40;86.30
40622;DHT22;26324;52.040;11.528;2023-02-01T07:06:58;4.50;85.80
40622;DHT22;26324;52.040;11.528;2023-02-01T07:09:29;4.50;85.70
40622;DHT22;26324;52.040;11.528;2023-02-01T07:11:56;4.50;86.00
40622;DHT22;26324;52.040;11.528;2023-02-01T07:14:23;4.60;85.60
40622;DHT22;26324;52.040;11.528;2023-02-01T07:16:50;4.60;85.30
40622;DHT22;26324;52.040;11.528;2023-02-01T07:19:19;4.70;84.90
40622;DHT22;26324;52.040;11.528;2023-02-01T07:21:46;4.70;84.80
40622;DHT22;26324;52.040;11.528;2023-02-01T07:24:13;4.80;84.40
40622;DHT22;26324;52.040;11.528;2023-02-01T07:26:41;4.80;84.60
40622;DHT22;26324;52.040;11.528;2023-02-01T07:29:15;4.80;84.30
40622;DHT22;26324;52.040;11.528;2023-02-01T07:31:42;4.90;83.90
40622;DHT22;26324;52.040;11.528;2023-02-01T07:34:09;5.00;83.60
40622;DHT22;26324;52.040;11.528;2023-02-01T07:36:36;5.00;84.20
40622;DHT22;26324;52.040;11.528;2023-02-01T07:39:04;4.90;85.40
40622;DHT22;26324;52.040;11.528;2023-02-01T07:41:31;4.70;85.90
40622;DHT22;26324;52.040;11.528;2023-02-01T07:43:58;4.50;86.60
40622;DHT22;26324;52.040;11.528;2023-02-01T07:46:26;4.40;87.30
40622;DHT22;26324;52.040;11.528;2023-02-01T07:48:53;4.40;87.60
40622;DHT22;26324;52.040;11.528;2023-02-01T07:51:20;4.40;87.50
40622;DHT22;26324;52.040;11.528;2023-02-01T07:53:47;4.50;87.40
40622;DHT22;26324;52.040;11.528;2023-02-01T07:56:17;4.50;87.60
40622;DHT22;26324;52.040;11.528;2023-02-01T07:58:49;4.50;87.50
40622;DHT22;26324;52.040;11.528;2023-02-01T08:01:22;4.50;87.50
40622;DHT22;26324;52.040;11.528;2023-02-01T08:03:56;4.50;87.90
40622;DHT22;26324;52.040;11.528;2023-02-01T08:06:26;4.50;88.10
40622;DHT22;26324;52.040;11.528;2023-02-01T08:08:54;4.50;88.40
40622;DHT22;26324;52.040;11.528;2023-02-01T08:11:23;4.50;88.30
40622;DHT22;26324;52.040;11.528;2023-02-01T08:13:51;4.50;88.10
40622;DHT22;26324;52.040;11.528;2023-02-01T08:16:19;4.50;88.00
40622;DHT22;26324;52.040;11.528;2023-02-01T08:18:50;4.60;87.80
40622;DHT22;26324;52.040;11.528;2023-02-01T08:21:20;4.60;87.90
40622;DHT22;26324;52.040;11.528;2023-02-01T08:23:51;4.60;88.00
40622;DHT22;26324;52.040;11.528;2023-02-01T08:26:22;4.60;88.20
40622;DHT22;26324;52.040;11.528;2023-02-01T08:28:59;4.50;88.60
40622;DHT22;26324;52.040;11.528;2023-02-01T08:31:27;4.40;88.80
40622;DHT22;26324;52.040;11.528;2023-02-01T08:33:57;4.40;88.90
40622;DHT22;26324;52.040;11.528;2023-02-01T08:36:27;4.40;88.80
40622;DHT22;26324;52.040;11.528;2023-02-01T08:38:54;4.40;89.00
40622;DHT22;26324;52.040;11.528;2023-02-01T08:41:27;4.50;88.70
40622;DHT22;26324;52.040;11.528;2023-02-01T08:43:56;4.50;88.90
40622;DHT22;26324;52.040;11.528;2023-02-01T08:46:23;4.50;89.00
40622;DHT22;26324;52.040;11.528;2023-02-01T08:48:52;4.50;88.40
40622;DHT22;26324;52.040;11.528;2023-02-01T08:51:21;4.60;88.50
40622;DHT22;26324;52.040;11.528;2023-02-01T08:53:49;4.60;88.30
40622;DHT22;26324;52.040;11.528;2023-02-01T08:56:18;4.60;88.60
40622;DHT22;26324;52.040;11.528;2023-02-01T08:58:45;4.50;88.70
40622;DHT22;26324;52.040;11.528;2023-02-01T09:01:14;4.50;88.90
40622;DHT22;26324;52.040;11.528;2023-02-01T09:03:43;4.60;88.40
40622;DHT22;26324;52.040;11.528;2023-02-01T09:06:13;4.70;88.20
40622;DHT22;26324;52.040;11.528;2023-02-01T09:08:41;4.70;88.00
40622;DHT22;26324;52.040;11.528;2023-02-01T09:11:13;4.80;88.10
40622;DHT22;26324;52.040;11.528;2023-02-01T09:13:40;4.90;87.10
40622;DHT22;26324;52.040;11.528;2023-02-01T09:16:08;5.00;87.00
40622;DHT22;26324;52.040;11.528;2023-02-01T09:18:38;5.00;87.10
40622;DHT22;26324;52.040;11.528;2023-02-01T09:21:22;5.10;86.10
40622;DHT22;26324;52.040;11.528;2023-02-01T09:23:54;5.00;86.90
40622;DHT22;26324;52.040;11.528;2023-02-01T09:26:22;4.90;87.20
40622;DHT22;26324;52.040;11.528;2023-02-01T09:29:00;4.70;87.40
40622;DHT22;26324;52.040;11.528;2023-02-01T09:31:27;4.60;87.40
40622;DHT22;26324;52.040;11.528;2023-02-01T09:33:55;4.50;88.10
40622;DHT22;26324;52.040;11.528;2023-02-01T09:36:22;4.50;88.00
40622;DHT22;26324;52.040;11.528;2023-02-01T09:39:02;4.50;87.90
40622;DHT22;26324;52.040;11.528;2023-02-01T09:44:52;4.40;88.20
40622;DHT22;26324;52.040;11.528;2023-02-01T09:47:28;4.30;88.20
40622;DHT22;26324;52.040;11.528;2023-02-01T09:50:00;4.30;89.00
40622;DHT22;26324;52.040;11.528;2023-02-01T09:52:40;4.20;89.40
40622;DHT22;26324;52.040;11.528;2023-02-01T09:55:18;4.30;89.50
40622;DHT22;26324;52.040;11.528;2023-02-01T09:57:58;4.40;88.90
40622;DHT22;26324;52.040;11.528;2023-02-01T10:00:35;4.50;88.80
40622;DHT22;26324;52.040;11.528;2023-02-01T10:03:03;4.70;88.80
40622;DHT22;26324;52.040;11.528;2023-02-01T10:08:32;5.00;88.10
40622;DHT22;26324;52.040;11.528;2023-02-01T10:20:30;5.10;87.30
40622;DHT22;26324;52.040;11.528;2023-02-01T10:22:46;5.30;87.50
40622;DHT22;26324;52.040;11.528;2023-02-01T10:25:42;5.50;87.50
40622;DHT22;26324;52.040;11.528;2023-02-01T10:28:15;5.60;86.10
40622;DHT22;26324;52.040;11.528;2023-02-01T10:30:45;5.60;85.90
40622;DHT22;26324;52.040;11.528;2023-02-01T10:33:17;5.70;85.70
40622;DHT22;26324;52.040;11.528;2023-02-01T10:35:55;5.80;85.50
40622;DHT22;26324;52.040;11.528;2023-02-01T10:38:27;5.90;85.10
40622;DHT22;26324;52.040;11.528;2023-02-01T10:41:01;6.00;83.50
40622;DHT22;26324;52.040;11.528;2023-02-01T10:43:30;6.00;83.80
40622;DHT22;26324;52.040;11.528;2023-02-01T10:45:58;6.10;82.60
40622;DHT22;26324;52.040;11.528;2023-02-01T10:48:27;6.10;82.80
40622;DHT22;26324;52.040;11.528;2023-02-01T10:51:20;6.20;81.60
40622;DHT22;26324;52.040;11.528;2023-02-01T10:53:49;6.40;81.90
40622;DHT22;26324;52.040;11.528;2023-02-01T10:56:26;6.40;80.00
40622;DHT22;26324;52.040;11.528;2023-02-01T10:59:06;6.40;80.30
40622;DHT22;26324;52.040;11.528;2023-02-01T11:01:39;6.30;80.60
40622;DHT22;26324;52.040;11.528;2023-02-01T11:04:10;6.30;80.80
40622;DHT22;26324;52.040;11.528;2023-02-01T11:09:40;6.30;80.10
40622;DHT22;26324;52.040;11.528;2023-02-01T11:12:30;6.40;79.50
40622;DHT22;26324;52.040;11.528;2023-02-01T11:17:35;6.40;80.10
40622;DHT22;26324;52.040;11.528;2023-02-01T11:20:14;6.40;78.80
40622;DHT22;26324;52.040;11.528;2023-02-01T11:22:55;6.50;79.60
40622;DHT22;26324;52.040;11.528;2023-02-01T11:25:24;6.40;79.10
40622;DHT22;26324;52.040;11.528;2023-02-01T11:27:54;6.50;78.80
40622;DHT22;26324;52.040;11.528;2023-02-01T11:30:34;6.50;78.90
40622;DHT22;26324;52.040;11.528;2023-02-01T11:33:03;6.50;78.80
40622;DHT22;26324;52.040;11.528;2023-02-01T11:35:35;6.60;78.20
40622;DHT22;26324;52.040;11.528;2023-02-01T11:38:18;6.70;77.40
40622;DHT22;26324;52.040;11.528;2023-02-01T11:40:48;6.80;77.90
40622;DHT22;26324;52.040;11.528;2023-02-01T11:43:26;6.90;77.30
40622;DHT22;26324;52.040;11.528;2023-02-01T11:45:59;6.90;76.90
40622;DHT22;26324;52.040;11.528;2023-02-01T11:48:29;6.90;76.70
40622;DHT22;26324;52.040;11.528;2023-02-01T11:54:06;7.00;76.00
40622;DHT22;26324;52.040;11.528;2023-02-01T12:05:41;6.80;76.50
40622;DHT22;26324;52.040;11.528;2023-02-01T12:14:04;6.70;77.00
40622;DHT22;26324;52.040;11.528;2023-02-01T12:17:01;6.70;75.70
40622;DHT22;26324;52.040;11.528;2023-02-01T12:22:55;6.80;75.60
40622;DHT22;26324;52.040;11.528;2023-02-01T12:28:22;7.10;75.00
40622;DHT22;26324;52.040;11.528;2023-02-01T12:36:25;7.30;72.80
40622;DHT22;26324;52.040;11.528;2023-02-01T12:39:02;7.40;72.00
40622;DHT22;26324;52.040;11.528;2023-02-01T12:41:43;7.50;72.30
40622;DHT22;26324;52.040;11.528;2023-02-01T12:45:26;7.70;70.70
40622;DHT22;26324;52.040;11.528;2023-02-01T12:47:39;7.80;71.00
40622;DHT22;26324;52.040;11.528;2023-02-01T12:53:17;8.00;69.90
40622;DHT22;26324;52.040;11.528;2023-02-01T12:55:56;8.00;69.30
40622;DHT22;26324;52.040;11.528;2023-02-01T12:58:48;8.00;70.00
40622;DHT22;26324;52.040;11.528;2023-02-01T13:01:40;8.00;69.70
40622;DHT22;26324;52.040;11.528;2023-02-01T13:04:20;8.00;69.60
40622;DHT22;26324;52.040;11.528;2023-02-01T13:07:01;8.10;69.40
40622;DHT22;26324;52.040;11.528;2023-02-01T13:09:54;7.80;69.10
40622;DHT22;26324;52.040;11.528;2023-02-01T13:12:40;7.60;69.10
40622;DHT22;26324;52.040;11.528;2023-02-01T13:15:36;7.60;70.30
40622;DHT22;26324;52.040;11.528;2023-02-01T13:18:14;7.60;69.50
40622;DHT22;26324;52.040;11.528;2023-02-01T13:20:49;7.50;70.20
40622;DHT22;26324;52.040;11.528;2023-02-01T13:23:27;7.30;71.60
40622;DHT22;26324;52.040;11.528;2023-02-01T13:25:55;7.10;72.50
40622;DHT22;26324;52.040;11.528;2023-02-01T13:28:29;7.00;73.20
40622;DHT22;26324;52.040;11.528;2023-02-01T13:33:59;6.70;76.20
40622;DHT22;26324;52.040;11.528;2023-02-01T13:42:48;6.60;75.20
40622;DHT22;26324;52.040;11.528;2023-02-01T13:47:52;6.70;75.60
40622;DHT22;26324;52.040;11.528;2023-02-01T13:50:29;6.70;74.70
40622;DHT22;26324;52.040;11.528;2023-02-01T13:53:05;6.50;76.60
40622;DHT22;26324;52.040;11.528;2023-02-01T13:55:41;6.30;76.80
40622;DHT22;26324;52.040;11.528;2023-02-01T13:58:40;6.20;76.60
40622;DHT22;26324;52.040;11.528;2023-02-01T14:06:34;6.00;78.60
40622;DHT22;26324;52.040;11.528;2023-02-01T14:09:15;6.10;79.60
40622;DHT22;26324;52.040;11.528;2023-02-01T14:11:49;6.10;77.80
40622;DHT22;26324;52.040;11.528;2023-02-01T14:19:37;6.30;77.60
40622;DHT22;26324;52.040;11.528;2023-02-01T14:24:55;6.30;78.60
40622;DHT22;26324;52.040;11.528;2023-02-01T14:27:29;6.10;79.30
40622;DHT22;26324;52.040;11.528;2023-02-01T14:30:05;6.10;79.30
40622;DHT22;26324;52.040;11.528;2023-02-01T14:32:37;6.00;80.50
40622;DHT22;26324;52.040;11.528;2023-02-01T14:35:12;5.80;81.90
40622;DHT22;26324;52.040;11.528;2023-02-01T14:37:43;5.50;83.70
40622;DHT22;26324;52.040;11.528;2023-02-01T14:42:48;5.00;85.40
40622;DHT22;26324;52.040;11.528;2023-02-01T14:59:00;4.30;89.00
40622;DHT22;26324;52.040;11.528;2023-02-01T15:01:34;4.30;88.90
40622;DHT22;26324;52.040;11.528;2023-02-01T15:04:13;4.20;88.80
40622;DHT22;26324;52.040;11.528;2023-02-01T15:06:50;4.10;89.20
40622;DHT22;26324;52.040;11.528;2023-02-01T15:09:31;4.10;88.70
40622;DHT22;26324;52.040;11.528;2023-02-01T15:12:16;4.10;88.40
40622;DHT22;26324;52.040;11.528;2023-02-01T15:15:13;4.10;86.30
40622;DHT22;26324;52.040;11.528;2023-02-01T15:17:41;4.10;86.80
40622;DHT22;26324;52.040;11.528;2023-02-01T15:20:23;4.10;86.00
40622;DHT22;26324;52.040;11.528;2023-02-01T15:23:00;4.00;86.00
40622;DHT22;26324;52.040;11.528;2023-02-01T15:25:30;3.80;86.60
40622;DHT22;26324;52.040;11.528;2023-02-01T15:27:57;3.80;86.60
40622;DHT22;26324;52.040;11.528;2023-02-01T15:30:31;3.70;86.70
40622;DHT22;26324;52.040;11.528;2023-02-01T15:33:16;3.70;87.00
40622;DHT22;26324;52.040;11.528;2023-02-01T15:35:46;3.60;87.30
40622;DHT22;26324;52.040;11.528;2023-02-01T15:41:03;3.50;87.00
40622;DHT22;26324;52.040;11.528;2023-02-01T15:43:40;3.50;86.80
40622;DHT22;26324;52.040;11.528;2023-02-01T15:46:17;3.40;87.10
40622;DHT22;26324;52.040;11.528;2023-02-01T15:48:53;3.40;87.30
40622;DHT22;26324;52.040;11.528;2023-02-01T15:51:26;3.50;87.30
40622;DHT22;26324;52.040;11.528;2023-02-01T15:53:59;3.50;87.20
40622;DHT22;26324;52.040;11.528;2023-02-01T15:56:33;3.50;87.40
40622;DHT22;26324;52.040;11.528;2023-02-01T15:59:02;3.50;87.20
40622;DHT22;26324;52.040;11.528;2023-02-01T16:01:36;3.50;87.40
40622;DHT22;26324;52.040;11.528;2023-02-01T16:04:23;3.40;87.50
40622;DHT22;26324;52.040;11.528;2023-02-01T16:06:56;3.40;87.70
40622;DHT22;26324;52.040;11.528;2023-02-01T16:09:35;3.30;87.40
40622;DHT22;26324;52.040;11.528;2023-02-01T16:12:17;3.30;87.50
40622;DHT22;26324;52.040;11.528;2023-02-01T16:14:46;3.30;87.50
40622;DHT22;26324;52.040;11.528;2023-02-01T16:17:13;3.30;87.60
40622;DHT22;26324;52.040;11.528;2023-02-01T16:19:40;3.30;87.50
40622;DHT22;26324;52.040;11.528;2023-02-01T16:22:12;3.30;87.50
40622;DHT22;26324;52.040;11.528;2023-02-01T16:24:39;3.30;87.40
40622;DHT22;26324;52.040;11.528;2023-02-01T16:27:06;3.40;87.50
40622;DHT22;26324;52.040;11.528;2023-02-01T16:29:34;3.30;87.20
40622;DHT22;26324;52.040;11.528;2023-02-01T16:32:01;3.40;87.20
40622;DHT22;26324;52.040;11.528;2023-02-01T16:34:28;3.40;87.30
40622;DHT22;26324;52.040;11.528;2023-02-01T16:36:57;3.40;87.30
40622;DHT22;26324;52.040;11.528;2023-02-01T16:39:24;3.30;87.30
40622;DHT22;26324;52.040;11.528;2023-02-01T16:41:52;3.30;87.50
40622;DHT22;26324;52.040;11.528;2023-02-01T16:44:19;3.30;87.50
40622;DHT22;26324;52.040;11.528;2023-02-01T16:46:51;3.30;87.60
40622;DHT22;26324;52.040;11.528;2023-02-01T16:49:21;3.30;87.40
40622;DHT22;26324;52.040;11.528;2023-02-01T16:51:57;3.20;87.30
40622;DHT22;26324;52.040;11.528;2023-02-01T16:54:25;3.30;86.70
40622;DHT22;26324;52.040;11.528;2023-02-01T16:56:54;3.40;86.50
40622;DHT22;26324;52.040;11.528;2023-02-01T16:59:24;3.30;86.50
40622;DHT22;26324;52.040;11.528;2023-02-01T17:01:51;3.30;86.60
40622;DHT22;26324;52.040;11.528;2023-02-01T17:04:18;3.30;86.70
40622;DHT22;26324;52.040;11.528;2023-02-01T17:06:47;3.30;86.70
40622;DHT22;26324;52.040;11.528;2023-02-01T17:09:15;3.30;87.10
40622;DHT22;26324;52.040;11.528;2023-02-01T17:11:43;3.30;87.10
40622;DHT22;26324;52.040;11.528;2023-02-01T17:14:18;3.30;87.00
40622;DHT22;26324;52.040;11.528;2023-02-01T17:16:46;3.30;87.00
40622;DHT22;26324;52.040;11.528;2023-02-01T17:19:16;3.30;87.10
40622;DHT22;26324;52.040;11.528;2023-02-01T17:21:50;3.30;87.20
40622;DHT22;26324;52.040;11.528;2023-02-01T17:24:23;3.30;87.20
40622;DHT22;26324;52.040;11.528;2023-02-01T17:26:53;3.30;87.30
40622;DHT22;26324;52.040;11.528;2023-02-01T17:29:46;3.30;87.30
40622;DHT22;26324;52.040;11.528;2023-02-01T17:32:23;3.40;87.40
40622;DHT22;26324;52.040;11.528;2023-02-01T17:34:51;3.50;87.50
40622;DHT22;26324;52.040;11.528;2023-02-01T17:37:27;3.50;87.70
40622;DHT22;26324;52.040;11.528;2023-02-01T17:40:21;3.60;87.40
40622;DHT22;26324;52.040;11.528;2023-02-01T17:42:49;3.70;87.10
40622;DHT22;26324;52.040;11.528;2023-02-01T17:48:03;3.90;86.80
40622;DHT22;26324;52.040;11.528;2023-02-01T17:50:33;4.00;86.40
40622;DHT22;26324;52.040;11.528;2023-02-01T17:53:02;3.90;86.60
40622;DHT22;26324;52.040;11.528;2023-02-01T17:55:35;3.90;86.20
40622;DHT22;26324;52.040;11.528;2023-02-01T17:58:02;4.00;86.30
40622;DHT22;26324;52.040;11.528;2023-02-01T18:00:30;4.00;85.80
40622;DHT22;26324;52.040;11.528;2023-02-01T18:02:57;4.00;85.70
40622;DHT22;26324;52.040;11.528;2023-02-01T18:05:38;4.00;85.60
40622;DHT22;26324;52.040;11.528;2023-02-01T18:08:06;4.00;85.60
40622;DHT22;26324;52.040;11.528;2023-02-01T18:10:35;4.00;85.80